High Bridge, New Jersey
Current Conditions -  °F | °C
As of 8:53 PM on Sunday 25 Jan 2015 (Local Time) from KSMQ Reporting Station
Overcast Overcast  
Wind Chill: 28°   Ceiling: 6500
Heat Index: 34°   Visibility: 10mi
Dew Point: 12°   Wind: 7mph
Humidity: 40%   Direction: 20°NNE
Pressure: 29.94"   Gusts: NA
Location:  40.67°N, 74.9°W
Report Text: KSMQ 260153Z AUTO 02006KT 10SM OVC065 01/M11 A2994 RMK AO2 SLP142 T00111111 TSNO
Loading
Personal Weather Stations






























Interactive Weather Map New forecast layout! Learn more

10-Day Weather Forecast

Advertisements
Track Severe Weather on mobile